createdAt,value
2022-11-29T00:00:47.172Z,98.25
2022-11-29T00:03:14.833Z,98.16
2022-11-29T00:05:41.388Z,98.03
2022-11-29T00:08:07.840Z,97.80
2022-11-29T00:10:37.993Z,98.72
2022-11-29T00:13:05.149Z,97.79
2022-11-29T00:15:38.776Z,98.57
2022-11-29T00:18:06.432Z,97.69
2022-11-29T00:20:35.010Z,97.84
2022-11-29T00:23:01.792Z,97.61
2022-11-29T00:25:28.186Z,98.15
2022-11-29T00:27:54.621Z,97.53
2022-11-29T00:30:21.581Z,98.19
2022-11-29T00:32:48.224Z,97.44
2022-11-29T00:35:14.670Z,97.85
2022-11-29T00:37:41.088Z,98.07
2022-11-29T00:40:08.235Z,97.93
2022-11-29T00:42:34.620Z,97.52
2022-11-29T00:45:01.000Z,98.05
2022-11-29T00:47:27.421Z,97.76
2022-11-29T00:49:53.859Z,97.71
2022-11-29T00:52:20.282Z,97.25
2022-11-29T00:54:46.917Z,97.71
2022-11-29T00:57:13.470Z,97.65
2022-11-29T00:59:39.849Z,97.63
2022-11-29T01:02:06.351Z,97.88
2022-11-29T01:04:32.822Z,98.23
2022-11-29T01:06:59.244Z,96.91
2022-11-29T01:09:25.667Z,97.94
2022-11-29T01:11:52.109Z,97.91
2022-11-29T01:14:18.601Z,97.84
2022-11-29T01:16:45.028Z,97.20
2022-11-29T01:19:12.814Z,97.41
2022-11-29T01:21:39.274Z,98.07
2022-11-29T01:24:05.844Z,97.54
2022-11-29T01:26:32.352Z,97.24
2022-11-29T01:28:59.497Z,97.76
2022-11-29T01:31:31.696Z,97.32
2022-11-29T01:34:02.756Z,97.42
2022-11-29T01:36:29.428Z,97.23
2022-11-29T01:38:58.182Z,97.83
2022-11-29T01:41:27.078Z,97.63
2022-11-29T01:43:58.552Z,97.21
2022-11-29T01:46:26.036Z,97.76
2022-11-29T01:48:56.410Z,97.74
2022-11-29T01:51:23.125Z,98.08
2022-11-29T01:53:49.605Z,97.65
2022-11-29T01:56:16.396Z,97.61
2022-11-29T01:58:44.836Z,98.11
2022-11-29T02:01:11.504Z,97.82
2022-11-29T02:03:37.992Z,97.70
2022-11-29T02:06:05.122Z,97.99
2022-11-29T02:08:40.413Z,97.48
2022-11-29T02:11:48.170Z,97.52
2022-11-29T02:14:36.078Z,97.54
2022-11-29T02:17:28.325Z,97.88
2022-11-29T02:20:10.196Z,97.43
2022-11-29T02:22:48.740Z,97.70
2022-11-29T02:25:33.876Z,97.41
2022-11-29T02:28:40.615Z,98.20
2022-11-29T02:31:18.047Z,97.63
2022-11-29T02:34:00.383Z,97.77
2022-11-29T02:36:38.070Z,97.48
2022-11-29T02:39:32.990Z,97.66
2022-11-29T02:42:27.068Z,97.44
2022-11-29T02:45:02.692Z,97.21
2022-11-29T02:47:44.506Z,97.44
2022-11-29T02:50:34.487Z,98.00
2022-11-29T02:53:27.832Z,97.58
2022-11-29T02:56:20.186Z,97.69
2022-11-29T02:59:06.121Z,97.66
2022-11-29T03:02:01.944Z,98.10
2022-11-29T03:04:40.811Z,98.21
2022-11-29T03:07:12.941Z,98.77
2022-11-29T03:09:55.442Z,98.08
2022-11-29T03:12:40.677Z,97.74
2022-11-29T03:15:28.914Z,98.09
2022-11-29T03:18:07.386Z,98.45
2022-11-29T03:21:03.389Z,97.91
2022-11-29T03:23:36.523Z,98.02
2022-11-29T03:26:11.087Z,98.35
2022-11-29T03:28:42.995Z,98.02
2022-11-29T03:31:21.040Z,98.89
2022-11-29T03:34:00.202Z,97.24
2022-11-29T03:36:37.759Z,97.55
2022-11-29T03:39:07.460Z,98.25
2022-11-29T03:41:57.206Z,97.95
2022-11-29T03:44:31.796Z,98.02
2022-11-29T03:47:09.894Z,98.20
2022-11-29T03:49:44.997Z,98.53
2022-11-29T03:52:42.937Z,98.04
2022-11-29T03:55:19.089Z,98.23
2022-11-29T03:57:57.688Z,98.56
2022-11-29T04:00:24.489Z,97.90
2022-11-29T04:03:15.990Z,97.64
2022-11-29T04:06:03.889Z,98.28
2022-11-29T04:08:48.206Z,98.21
2022-11-29T04:11:35.481Z,97.94
2022-11-29T04:14:39.280Z,98.95
2022-11-29T04:17:24.640Z,98.75
2022-11-29T04:20:17.772Z,98.19
2022-11-29T04:23:29.419Z,97.93
2022-11-29T04:26:16.549Z,98.74
2022-11-29T04:29:15.626Z,98.77
2022-11-29T04:31:59.619Z,98.38
2022-11-29T04:34:47.845Z,98.25
2022-11-29T04:37:51.833Z,98.90
2022-11-29T04:40:21.223Z,98.43
2022-11-29T04:43:00.645Z,98.28
2022-11-29T04:45:45.532Z,97.85
2022-11-29T04:48:33.405Z,97.97
2022-11-29T04:51:38.030Z,97.99
2022-11-29T04:54:38.184Z,98.27
2022-11-29T04:57:17.573Z,98.52
2022-11-29T05:00:00.020Z,98.27
2022-11-29T05:02:39.490Z,98.64
2022-11-29T05:05:44.053Z,99.29
2022-11-29T05:08:34.565Z,99.37
2022-11-29T05:11:09.988Z,99.03
2022-11-29T05:13:55.137Z,98.87
2022-11-29T05:16:47.919Z,98.26
2022-11-29T05:19:42.419Z,98.57
2022-11-29T05:22:31.546Z,99.53
2022-11-29T05:25:15.549Z,98.69
2022-11-29T05:28:10.325Z,98.75
2022-11-29T05:31:08.709Z,98.92
2022-11-29T05:33:53.892Z,98.85
2022-11-29T05:36:50.806Z,99.01
2022-11-29T05:39:26.139Z,99.56
2022-11-29T05:42:05.485Z,98.62
2022-11-29T05:44:34.323Z,100.00
2022-11-29T05:47:02.803Z,100.00
2022-11-29T05:49:56.198Z,100.00
2022-11-29T05:52:48.620Z,99.43
2022-11-29T05:55:15.167Z,99.39
2022-11-29T05:58:08.480Z,99.67
2022-11-29T06:00:45.888Z,99.91
2022-11-29T06:03:33.340Z,99.56
2022-11-29T06:06:16.886Z,99.16
2022-11-29T06:08:54.813Z,99.67
2022-11-29T06:11:30.752Z,99.52
2022-11-29T06:14:08.624Z,100.00
2022-11-29T06:16:53.448Z,99.60
2022-11-29T06:19:46.586Z,99.38
2022-11-29T06:22:50.428Z,99.97
2022-11-29T06:25:20.338Z,100.00
2022-11-29T06:28:16.613Z,100.00
2022-11-29T06:31:17.587Z,100.00
2022-11-29T06:33:54.657Z,100.00
2022-11-29T06:36:31.117Z,99.78
2022-11-29T06:38:57.843Z,100.00
2022-11-29T06:41:24.693Z,100.00
2022-11-29T06:43:51.529Z,100.00
2022-11-29T06:46:47.050Z,100.00
2022-11-29T06:49:19.944Z,100.00
2022-11-29T06:52:26.479Z,100.00
2022-11-29T06:55:05.170Z,100.00
2022-11-29T06:57:47.364Z,100.00
2022-11-29T07:00:20.997Z,100.00
2022-11-29T07:03:06.744Z,100.00
2022-11-29T07:05:35.337Z,100.00
2022-11-29T07:08:13.752Z,100.00
2022-11-29T07:10:41.393Z,100.00
2022-11-29T07:13:08.043Z,100.00
2022-11-29T07:15:36.603Z,100.00
2022-11-29T07:18:19.968Z,100.00
2022-11-29T07:21:16.554Z,100.00
2022-11-29T07:24:13.487Z,100.00
2022-11-29T07:27:01.801Z,100.00
2022-11-29T07:29:48.681Z,100.00
2022-11-29T07:32:50.338Z,100.00
2022-11-29T07:35:38.592Z,100.00
2022-11-29T07:38:29.295Z,100.00
2022-11-29T07:41:20.343Z,100.00
2022-11-29T07:44:17.063Z,100.00
2022-11-29T07:46:43.560Z,100.00
2022-11-29T07:49:11.252Z,100.00
2022-11-29T07:51:37.795Z,100.00
2022-11-29T07:54:04.459Z,100.00
2022-11-29T07:56:30.872Z,100.00
2022-11-29T07:58:57.366Z,100.00
2022-11-29T08:01:23.851Z,100.00
2022-11-29T08:03:50.320Z,100.00
2022-11-29T08:06:16.766Z,100.00
2022-11-29T08:08:44.343Z,100.00
2022-11-29T08:11:12.610Z,100.00
2022-11-29T08:13:38.991Z,100.00
2022-11-29T08:16:05.667Z,100.00
2022-11-29T08:18:32.218Z,100.00
2022-11-29T08:20:58.607Z,100.00
2022-11-29T08:23:25.036Z,100.00
2022-11-29T08:25:59.375Z,100.00
2022-11-29T08:28:26.097Z,100.00
2022-11-29T08:31:03.789Z,100.00
2022-11-29T08:33:30.289Z,100.00
2022-11-29T08:35:56.912Z,100.00
2022-11-29T08:38:23.371Z,100.00
2022-11-29T08:40:49.828Z,100.00
2022-11-29T08:43:16.259Z,100.00
2022-11-29T08:45:42.654Z,100.00
2022-11-29T08:48:09.095Z,100.00
2022-11-29T08:50:35.528Z,100.00
2022-11-29T08:53:20.496Z,100.00
2022-11-29T08:55:46.884Z,100.00
2022-11-29T08:58:15.425Z,100.00
2022-11-29T09:00:44.438Z,100.00
2022-11-29T09:03:29.689Z,100.00
2022-11-29T09:05:57.465Z,100.00
2022-11-29T09:08:23.883Z,100.00
2022-11-29T09:10:50.423Z,100.00
2022-11-29T09:13:18.061Z,100.00
2022-11-29T09:15:44.497Z,100.00
2022-11-29T09:18:11.395Z,100.00
2022-11-29T09:20:37.882Z,100.00
2022-11-29T09:23:04.715Z,100.00
2022-11-29T09:25:31.301Z,100.00
2022-11-29T09:28:01.802Z,100.00
2022-11-29T09:30:31.339Z,100.00
2022-11-29T09:33:00.647Z,100.00
2022-11-29T09:35:27.122Z,100.00
2022-11-29T09:37:53.560Z,100.00
2022-11-29T09:40:25.419Z,100.00
2022-11-29T09:43:39.072Z,100.00
2022-11-29T09:46:19.076Z,100.00
2022-11-29T09:49:03.883Z,100.00
2022-11-29T09:51:41.148Z,100.00
2022-11-29T09:54:40.981Z,100.00
2022-11-29T09:57:10.914Z,100.00
2022-11-29T09:59:48.741Z,100.00
2022-11-29T10:02:37.293Z,100.00
2022-11-29T10:05:24.365Z,100.00
2022-11-29T10:08:06.540Z,100.00
2022-11-29T10:10:43.146Z,100.00
2022-11-29T10:13:33.344Z,100.00
2022-11-29T10:16:10.168Z,100.00
2022-11-29T10:19:12.837Z,100.00
2022-11-29T10:21:42.964Z,100.00
2022-11-29T10:24:17.812Z,100.00
2022-11-29T10:26:44.431Z,100.00
2022-11-29T10:29:16.033Z,100.00
2022-11-29T10:31:49.309Z,100.00
2022-11-29T10:34:18.272Z,100.00
2022-11-29T10:36:47.926Z,100.00
2022-11-29T10:39:30.774Z,100.00
2022-11-29T10:42:01.591Z,100.00
2022-11-29T10:44:29.144Z,100.00
2022-11-29T10:46:56.043Z,100.00
2022-11-29T10:49:27.148Z,100.00
2022-11-29T10:51:53.583Z,100.00
2022-11-29T10:54:25.963Z,100.00
2022-11-29T10:56:52.404Z,100.00
2022-11-29T10:59:21.483Z,100.00
2022-11-29T11:01:47.934Z,100.00
2022-11-29T11:04:17.310Z,100.00
2022-11-29T11:06:52.163Z,100.00
2022-11-29T11:09:40.491Z,100.00
2022-11-29T11:12:18.824Z,100.00
2022-11-29T11:14:46.897Z,100.00
2022-11-29T11:17:26.286Z,100.00
2022-11-29T11:20:18.874Z,100.00
2022-11-29T11:22:57.651Z,100.00
2022-11-29T11:25:45.720Z,100.00
2022-11-29T11:28:25.141Z,100.00
2022-11-29T11:31:01.825Z,100.00
2022-11-29T11:33:39.679Z,100.00
2022-11-29T11:36:13.669Z,100.00
2022-11-29T11:39:23.022Z,100.00
2022-11-29T11:42:09.908Z,100.00
2022-11-29T11:44:52.422Z,100.00
2022-11-29T11:47:25.474Z,100.00
2022-11-29T11:50:07.598Z,100.00
2022-11-29T11:52:41.300Z,100.00
2022-11-29T11:55:21.365Z,100.00
2022-11-29T11:58:16.272Z,100.00
2022-11-29T12:01:05.091Z,100.00
2022-11-29T12:03:59.985Z,100.00
2022-11-29T12:06:52.465Z,100.00
2022-11-29T12:09:32.384Z,100.00
2022-11-29T12:12:14.666Z,100.00
2022-11-29T12:14:59.880Z,100.00
2022-11-29T12:17:39.981Z,100.00
2022-11-29T12:20:24.757Z,100.00
2022-11-29T12:22:53.962Z,100.00
2022-11-29T12:25:30.407Z,100.00
2022-11-29T12:27:56.877Z,100.00
2022-11-29T12:30:23.477Z,100.00
2022-11-29T12:33:15.504Z,100.00
2022-11-29T12:35:58.484Z,100.00
2022-11-29T12:38:59.928Z,100.00
2022-11-29T12:41:41.713Z,100.00
2022-11-29T12:44:22.429Z,100.00
2022-11-29T12:47:28.178Z,100.00
2022-11-29T12:50:07.240Z,100.00
2022-11-29T12:53:01.326Z,100.00
2022-11-29T12:55:43.718Z,100.00
2022-11-29T12:58:25.362Z,100.00
2022-11-29T13:01:20.660Z,100.00
2022-11-29T13:04:00.573Z,100.00
2022-11-29T13:06:28.525Z,100.00
2022-11-29T13:09:03.093Z,100.00
2022-11-29T13:11:37.574Z,99.95
2022-11-29T13:14:42.591Z,100.00
2022-11-29T13:17:24.582Z,100.00
2022-11-29T13:19:58.163Z,100.00
2022-11-29T13:22:49.044Z,99.68
2022-11-29T13:25:23.549Z,99.37
2022-11-29T13:28:00.263Z,99.70
2022-11-29T13:30:26.948Z,99.89
2022-11-29T13:33:17.466Z,99.88
2022-11-29T13:35:53.539Z,99.35
2022-11-29T13:38:29.370Z,99.18
2022-11-29T13:41:22.688Z,99.29
2022-11-29T13:43:56.554Z,99.52
2022-11-29T13:46:35.822Z,99.05
2022-11-29T13:49:02.305Z,99.06
2022-11-29T13:51:38.128Z,98.82
2022-11-29T13:54:07.374Z,98.75
2022-11-29T13:56:48.153Z,98.57
2022-11-29T13:59:23.083Z,98.89
2022-11-29T14:01:53.808Z,98.98
2022-11-29T14:04:20.300Z,98.96
2022-11-29T14:06:48.269Z,98.61
2022-11-29T14:09:27.898Z,98.71
2022-11-29T14:12:24.353Z,98.80
2022-11-29T14:15:00.999Z,97.87
2022-11-29T14:17:47.385Z,98.30
2022-11-29T14:20:22.688Z,98.26
2022-11-29T14:23:04.402Z,97.98
2022-11-29T14:28:18.142Z,98.05
2022-11-29T14:30:44.477Z,98.71
2022-11-29T14:34:00.305Z,98.25
2022-11-29T14:36:47.975Z,97.61
2022-11-29T14:39:26.289Z,98.56
2022-11-29T14:42:15.245Z,98.14
2022-11-29T14:44:49.239Z,97.69
2022-11-29T14:47:29.656Z,98.31
2022-11-29T14:49:58.244Z,98.25
2022-11-29T14:52:32.462Z,98.45
2022-11-29T14:55:15.933Z,98.58
2022-11-29T14:58:01.024Z,98.71
2022-11-29T15:00:30.515Z,98.31
2022-11-29T15:03:15.403Z,98.19
2022-11-29T15:05:44.974Z,98.40
2022-11-29T15:08:26.677Z,98.52
2022-11-29T15:10:57.400Z,98.18
2022-11-29T15:13:29.235Z,99.01
2022-11-29T15:16:11.043Z,98.16
2022-11-29T15:19:00.304Z,99.00
2022-11-29T15:21:54.752Z,98.28
2022-11-29T15:24:26.857Z,98.63
2022-11-29T15:27:00.195Z,98.19
2022-11-29T15:29:28.665Z,98.66
2022-11-29T15:31:58.643Z,98.62
2022-11-29T15:34:28.117Z,99.32
2022-11-29T15:36:54.540Z,99.20
2022-11-29T15:39:33.868Z,99.40
2022-11-29T15:42:20.535Z,98.90
2022-11-29T15:44:48.176Z,98.50
2022-11-29T15:47:25.837Z,99.50
2022-11-29T15:49:54.085Z,99.46
2022-11-29T15:52:46.666Z,99.52
2022-11-29T15:55:14.361Z,98.63
2022-11-29T15:57:47.940Z,98.99
2022-11-29T16:00:20.295Z,98.93
2022-11-29T16:02:52.118Z,99.43
2022-11-29T16:05:23.198Z,99.11
2022-11-29T16:07:53.478Z,99.66
2022-11-29T16:10:24.865Z,99.32
2022-11-29T16:12:58.563Z,98.59
2022-11-29T16:15:31.658Z,99.62
2022-11-29T16:18:19.767Z,99.04
2022-11-29T16:21:00.003Z,99.42
2022-11-29T16:23:34.379Z,99.16
2022-11-29T16:26:16.553Z,99.50
2022-11-29T16:28:48.660Z,99.59
2022-11-29T16:31:24.747Z,99.41
2022-11-29T16:33:52.437Z,99.29
2022-11-29T16:36:23.454Z,99.45
2022-11-29T16:38:58.520Z,99.45
2022-11-29T16:41:38.414Z,99.92
2022-11-29T16:44:26.382Z,99.84
2022-11-29T16:47:12.130Z,98.83
2022-11-29T16:49:38.589Z,99.23
2022-11-29T16:52:23.780Z,99.25
2022-11-29T16:54:50.642Z,99.19
2022-11-29T16:57:17.765Z,99.73
2022-11-29T16:59:44.349Z,99.76
2022-11-29T17:02:11.847Z,99.18
2022-11-29T17:04:38.300Z,99.60
2022-11-29T17:07:07.371Z,99.18
2022-11-29T17:09:34.692Z,98.58
2022-11-29T17:12:02.501Z,98.47
2022-11-29T17:14:29.620Z,98.24
2022-11-29T17:16:56.135Z,98.44
2022-11-29T17:19:23.793Z,99.17
2022-11-29T17:21:51.625Z,98.95
2022-11-29T17:24:19.867Z,99.52
2022-11-29T17:26:46.429Z,98.63
2022-11-29T17:29:15.123Z,99.55
2022-11-29T17:31:44.168Z,98.71
2022-11-29T17:34:10.670Z,99.17
2022-11-29T17:36:37.602Z,98.34
2022-11-29T17:39:05.333Z,98.59
2022-11-29T17:41:32.792Z,98.29
2022-11-29T17:43:59.931Z,98.56
2022-11-29T17:46:29.174Z,98.51
2022-11-29T17:48:57.985Z,98.50
2022-11-29T17:54:11.450Z,98.06
2022-11-29T17:56:37.909Z,98.78
2022-11-29T17:59:05.293Z,98.77
2022-11-29T18:01:33.714Z,98.48
2022-11-29T18:04:01.654Z,99.33
2022-11-29T18:06:31.357Z,98.98
2022-11-29T18:08:59.672Z,99.19
2022-11-29T18:11:31.322Z,98.97
2022-11-29T18:13:58.686Z,98.48
2022-11-29T18:16:31.424Z,99.11
2022-11-29T18:18:59.187Z,97.94
2022-11-29T18:21:25.762Z,98.42
2022-11-29T18:23:53.294Z,98.38
2022-11-29T18:26:22.030Z,98.87
2022-11-29T18:28:49.687Z,98.29
2022-11-29T18:31:24.948Z,98.62
2022-11-29T18:33:56.676Z,98.80
2022-11-29T18:36:27.700Z,98.34
2022-11-29T18:38:56.810Z,98.54
2022-11-29T18:41:24.446Z,98.42
2022-11-29T18:43:58.868Z,98.32
2022-11-29T18:46:26.244Z,99.06
2022-11-29T18:48:52.909Z,98.36
2022-11-29T18:51:20.236Z,97.72
2022-11-29T18:53:46.966Z,98.40
2022-11-29T18:56:19.447Z,98.86
2022-11-29T18:58:56.730Z,99.17
2022-11-29T19:01:26.865Z,98.83
2022-11-29T19:03:55.355Z,98.60
2022-11-29T19:06:39.458Z,97.88
2022-11-29T19:09:08.205Z,98.33
2022-11-29T19:11:34.868Z,98.05
2022-11-29T19:14:04.632Z,97.66
2022-11-29T19:16:33.899Z,98.54
2022-11-29T19:19:01.438Z,98.29
2022-11-29T19:21:31.675Z,98.42
2022-11-29T19:24:01.498Z,98.69
2022-11-29T19:26:30.285Z,98.00
2022-11-29T19:28:57.511Z,98.74
2022-11-29T19:31:25.138Z,97.91
2022-11-29T19:33:52.647Z,98.21
2022-11-29T19:36:29.646Z,97.92
2022-11-29T19:38:57.133Z,97.66
2022-11-29T19:41:32.228Z,97.81
2022-11-29T19:44:01.026Z,97.61
2022-11-29T19:46:35.984Z,97.56
2022-11-29T19:49:04.367Z,97.85
2022-11-29T19:51:31.110Z,98.07
2022-11-29T19:54:00.214Z,97.16
2022-11-29T19:56:27.650Z,98.04
2022-11-29T19:58:55.198Z,97.64
2022-11-29T20:01:25.039Z,97.25
2022-11-29T20:03:52.648Z,97.19
2022-11-29T20:06:19.455Z,97.30
2022-11-29T20:08:46.009Z,98.04
2022-11-29T20:11:15.336Z,97.04
2022-11-29T20:13:43.923Z,97.74
2022-11-29T20:16:13.689Z,97.86
2022-11-29T20:18:50.221Z,98.09
2022-11-29T20:21:20.205Z,97.32
2022-11-29T20:23:47.158Z,98.15
2022-11-29T20:26:19.369Z,98.26
2022-11-29T20:28:46.735Z,98.18
2022-11-29T20:31:16.951Z,97.90
2022-11-29T20:33:46.042Z,97.69
2022-11-29T20:36:37.600Z,97.71
2022-11-29T20:39:06.790Z,97.98
2022-11-29T20:41:40.165Z,97.98
2022-11-29T20:44:10.052Z,98.35
2022-11-29T20:46:36.652Z,98.19
2022-11-29T20:49:06.716Z,97.76
2022-11-29T20:51:42.668Z,97.53
2022-11-29T20:54:11.809Z,98.25
2022-11-29T20:56:46.448Z,97.65
2022-11-29T20:59:39.652Z,97.64
2022-11-29T21:02:09.913Z,97.64
2022-11-29T21:04:36.727Z,97.53
2022-11-29T21:07:03.309Z,97.53
2022-11-29T21:09:29.736Z,98.26
2022-11-29T21:11:56.470Z,98.51
2022-11-29T21:14:23.261Z,97.98
2022-11-29T21:16:49.892Z,98.71
2022-11-29T21:19:20.122Z,98.25
2022-11-29T21:22:02.601Z,98.50
2022-11-29T21:24:48.032Z,99.69
2022-11-29T21:27:20.291Z,99.45
2022-11-29T21:29:47.006Z,99.45
2022-11-29T21:32:21.816Z,99.13
2022-11-29T21:34:48.849Z,98.87
2022-11-29T21:37:18.383Z,98.55
2022-11-29T21:39:45.249Z,99.05
2022-11-29T21:42:11.737Z,99.61
2022-11-29T21:44:38.381Z,99.11
2022-11-29T21:47:05.084Z,98.48
2022-11-29T21:49:31.613Z,99.00
2022-11-29T21:52:00.976Z,100.00
2022-11-29T21:54:28.099Z,99.66
2022-11-29T21:56:55.312Z,99.22
2022-11-29T21:59:24.761Z,99.66
2022-11-29T22:01:52.748Z,99.27
2022-11-29T22:04:19.722Z,99.63
2022-11-29T22:06:47.176Z,99.69
2022-11-29T22:09:13.810Z,99.44
2022-11-29T22:11:40.695Z,99.79
2022-11-29T22:14:19.048Z,99.67
2022-11-29T22:16:50.980Z,99.62
2022-11-29T22:19:31.503Z,100.00
2022-11-29T22:21:59.936Z,99.42
2022-11-29T22:24:28.700Z,99.68
2022-11-29T22:26:56.096Z,99.95
2022-11-29T22:29:23.725Z,100.00
2022-11-29T22:31:52.948Z,100.00
2022-11-29T22:34:20.200Z,100.00
2022-11-29T22:36:46.955Z,100.00
2022-11-29T22:39:14.246Z,100.00
2022-11-29T22:41:40.865Z,100.00
2022-11-29T22:44:07.680Z,100.00
2022-11-29T22:46:39.127Z,100.00
2022-11-29T22:49:05.549Z,100.00
2022-11-29T22:51:35.484Z,100.00
2022-11-29T22:54:05.140Z,100.00
2022-11-29T22:56:35.188Z,100.00
2022-11-29T22:59:01.826Z,100.00
2022-11-29T23:01:30.687Z,100.00
2022-11-29T23:03:59.090Z,100.00
2022-11-29T23:06:37.535Z,100.00
2022-11-29T23:09:07.388Z,100.00
2022-11-29T23:11:33.806Z,100.00
2022-11-29T23:14:00.262Z,100.00
2022-11-29T23:16:28.426Z,100.00
2022-11-29T23:18:58.218Z,100.00
2022-11-29T23:21:27.188Z,100.00
2022-11-29T23:23:56.656Z,100.00
2022-11-29T23:26:39.581Z,100.00
2022-11-29T23:29:08.809Z,100.00
2022-11-29T23:31:35.293Z,100.00
2022-11-29T23:34:02.438Z,99.74
2022-11-29T23:36:28.920Z,100.00
2022-11-29T23:38:55.321Z,100.00
2022-11-29T23:41:21.700Z,100.00
2022-11-29T23:43:48.193Z,100.00
2022-11-29T23:46:20.699Z,100.00
2022-11-29T23:48:47.567Z,100.00
2022-11-29T23:51:14.706Z,99.73
2022-11-29T23:53:41.976Z,99.69
2022-11-29T23:56:18.036Z,99.84
2022-11-29T23:58:44.822Z,99.20
